Time;durP1;ratioP1;P1;durP2;ratioP2;P2;SDS_P1;SDS_P2;PMS_P1;PMS_P2;Temp;Humidity;BMP_temperature;BMP_pressure;BME280_temperature;BME280_humidity;BME280_pressure;Samples;Min_cycle;Max_cycle;Signal;HPM_P1;HPM_P2
2023/04/13 00:01:26;;;;;;;33.17;5.50;;;13.50;87.60;;;;;;5043136;28;20025;-55
2023/04/13 00:03:52;;;;;;;26.55;5.47;;;13.50;88.40;;;;;;5044622;28;20107;-55
2023/04/13 00:06:19;;;;;;;27.10;5.72;;;13.50;87.70;;;;;;5044380;28;20106;-55
2023/04/13 00:08:45;;;;;;;26.48;5.15;;;13.50;87.60;;;;;;5043352;28;20034;-55
2023/04/13 00:11:11;;;;;;;28.38;5.60;;;13.50;87.50;;;;;;5043222;28;20106;-55
2023/04/13 00:13:41;;;;;;;24.88;5.75;;;13.40;88.00;;;;;;5043290;28;20030;-55
2023/04/13 00:16:11;;;;;;;26.70;4.78;;;13.40;87.50;;;;;;5043312;28;20363;-55
2023/04/13 00:18:36;;;;;;;31.65;5.25;;;13.40;87.30;;;;;;5043167;28;20022;-55
2023/04/13 00:21:02;;;;;;;29.75;5.60;;;13.40;87.30;;;;;;5010663;28;20132;-55
2023/04/13 00:23:28;;;;;;;27.02;5.50;;;13.30;87.40;;;;;;5043314;28;20401;-55
2023/04/13 00:25:53;;;;;;;39.75;5.68;;;13.30;87.60;;;;;;5042793;28;20037;-55
2023/04/13 00:28:19;;;;;;;19.75;4.05;;;13.30;87.60;;;;;;5043101;28;20128;-55
2023/04/13 00:30:44;;;;;;;20.92;4.07;;;13.30;87.40;;;;;;5044461;28;20076;-55
2023/04/13 00:33:22;;;;;;;24.75;4.53;;;13.30;86.90;;;;;;5042697;28;20093;-55
2023/04/13 00:35:48;;;;;;;23.17;4.85;;;13.30;86.80;;;;;;5043233;28;20037;-55
2023/04/13 00:38:13;;;;;;;22.10;3.97;;;13.30;86.80;;;;;;5044273;28;20033;-55
2023/04/13 00:40:39;;;;;;;15.88;3.83;;;13.20;86.70;;;;;;5042759;28;20029;-55
2023/04/13 00:43:05;;;;;;;21.63;4.55;;;13.20;86.60;;;;;;5043173;28;20033;-55
2023/04/13 00:45:32;;;;;;;16.58;4.03;;;13.50;86.90;;;;;;5044173;28;20030;-55
2023/04/13 00:47:58;;;;;;;19.85;4.70;;;13.20;86.60;;;;;;5026456;28;20397;-55
2023/04/13 00:50:24;;;;;;;20.45;4.55;;;13.10;86.60;;;;;;5044567;28;20026;-55
2023/04/13 00:52:50;;;;;;;22.92;5.85;;;13.10;86.80;;;;;;5046669;28;20033;-55
2023/04/13 00:55:19;;;;;;;19.92;5.38;;;13.10;87.60;;;;;;5046707;28;20042;-55
2023/04/13 00:57:48;;;;;;;22.50;6.32;;;13.10;86.80;;;;;;5046585;28;20026;-55
2023/04/13 01:00:16;;;;;;;33.25;6.72;;;13.10;86.90;;;;;;5047912;28;20040;-55
2023/04/13 01:02:41;;;;;;;21.92;5.93;;;13.10;87.30;;;;;;5047488;28;20060;-55
2023/04/13 01:05:07;;;;;;;19.65;5.70;;;13.10;86.70;;;;;;5046517;28;20033;-55
2023/04/13 01:07:40;;;;;;;18.55;5.82;;;13.00;86.90;;;;;;5046338;28;20036;-55
2023/04/13 01:10:27;;;;;;;28.63;5.85;;;13.10;87.10;;;;;;5030807;28;20394;-55
2023/04/13 01:13:06;;;;;;;16.13;5.45;;;13.00;87.10;;;;;;5030720;28;20489;-55
2023/04/13 01:15:36;;;;;;;18.83;6.47;;;13.00;87.10;;;;;;5046647;28;20121;-55
2023/04/13 01:18:07;;;;;;;20.52;5.55;;;13.00;87.10;;;;;;5030131;28;20025;-55
2023/04/13 01:20:34;;;;;;;20.77;5.22;;;12.90;86.90;;;;;;5030519;28;20033;-55
2023/04/13 01:23:03;;;;;;;17.30;4.50;;;12.90;87.00;;;;;;5046219;28;20034;-55
2023/04/13 01:25:53;;;;;;;19.42;5.07;;;12.90;86.80;;;;;;5029858;28;20057;-55
2023/04/13 01:28:20;;;;;;;18.23;4.90;;;12.90;87.00;;;;;;5046293;28;20021;-55
2023/04/13 01:30:46;;;;;;;17.13;4.53;;;12.90;87.00;;;;;;5029568;28;20052;-55
2023/04/13 01:33:12;;;;;;;13.77;4.18;;;12.90;86.80;;;;;;5045937;28;20045;-55
2023/04/13 01:35:38;;;;;;;16.00;4.50;;;12.90;86.70;;;;;;5046226;28;20036;-55
2023/04/13 01:38:05;;;;;;;22.25;4.82;;;12.90;86.30;;;;;;5045908;28;20022;-55
2023/04/13 01:40:33;;;;;;;18.55;4.88;;;12.80;86.40;;;;;;5045840;28;20378;-55
2023/04/13 01:42:59;;;;;;;16.02;4.00;;;12.80;86.50;;;;;;5045896;28;20025;-55
2023/04/13 01:45:25;;;;;;;16.70;4.68;;;12.80;86.30;;;;;;5046942;28;20111;-55
2023/04/13 01:48:17;;;;;;;11.73;4.95;;;12.80;86.30;;;;;;5045802;28;20034;-55
2023/04/13 01:50:53;;;;;;;17.63;3.92;;;12.80;86.20;;;;;;5029768;28;20064;-55
2023/04/13 01:53:23;;;;;;;13.75;3.85;;;12.80;86.20;;;;;;5045532;28;20056;-55
2023/04/13 01:55:49;;;;;;;16.40;3.97;;;12.80;85.90;;;;;;5029243;28;20466;-55
2023/04/13 01:58:14;;;;;;;15.05;4.03;;;12.70;85.90;;;;;;5012535;28;20045;-55
2023/04/13 02:00:40;;;;;;;8.77;4.10;;;12.70;86.60;;;;;;5012349;28;20044;-55
2023/04/13 02:03:07;;;;;;;13.55;3.95;;;12.70;85.90;;;;;;5045092;28;20088;-55
2023/04/13 02:05:33;;;;;;;11.40;3.72;;;12.70;85.80;;;;;;5045387;28;20033;-55
2023/04/13 02:07:58;;;;;;;11.48;4.10;;;12.70;85.70;;;;;;5046907;28;20036;-55
2023/04/13 02:10:25;;;;;;;21.33;4.25;;;12.70;85.60;;;;;;5028709;28;20056;-55
2023/04/13 02:12:52;;;;;;;14.45;4.63;;;12.70;85.70;;;;;;5045322;28;20034;-55
2023/04/13 02:15:17;;;;;;;19.88;4.70;;;12.70;85.90;;;;;;5028952;28;20045;-55
2023/04/13 02:17:43;;;;;;;15.20;4.53;;;12.60;86.00;;;;;;5045704;28;20083;-55
2023/04/13 02:20:10;;;;;;;18.17;4.63;;;12.60;86.00;;;;;;5046455;28;20028;-55
2023/04/13 02:22:36;;;;;;;14.98;4.60;;;12.60;86.00;;;;;;5029072;28;20101;-55
2023/04/13 02:25:02;;;;;;;11.98;4.38;;;12.60;85.90;;;;;;5028310;28;20541;-55
2023/04/13 02:27:29;;;;;;;12.32;4.15;;;12.60;85.80;;;;;;5046671;28;20030;-55
2023/04/13 02:29:55;;;;;;;15.85;4.28;;;12.60;85.70;;;;;;5028736;28;20041;-55
2023/04/13 02:32:21;;;;;;;11.45;3.92;;;12.60;85.60;;;;;;5046184;28;20057;-55
2023/04/13 02:34:46;;;;;;;20.05;4.00;;;12.60;85.50;;;;;;5046331;28;20018;-55
2023/04/13 02:37:12;;;;;;;10.48;4.10;;;12.60;85.40;;;;;;5046269;28;20079;-55
2023/04/13 02:39:38;;;;;;;13.98;3.88;;;12.60;85.30;;;;;;5028375;28;20026;-55
2023/04/13 02:42:04;;;;;;;9.88;3.97;;;12.60;85.30;;;;;;5045092;28;20057;-55
2023/04/13 02:44:29;;;;;;;13.07;3.75;;;12.60;85.20;;;;;;5045942;28;20041;-55
2023/04/13 02:46:55;;;;;;;11.90;4.00;;;12.60;85.20;;;;;;5046481;28;20486;-55
2023/04/13 02:49:21;;;;;;;10.55;3.88;;;12.60;85.20;;;;;;5046162;28;20030;-55
2023/04/13 02:51:46;;;;;;;16.33;4.30;;;12.50;85.10;;;;;;5045483;28;20037;-55
2023/04/13 02:54:12;;;;;;;18.85;3.75;;;12.50;85.10;;;;;;5044830;28;20022;-55
2023/04/13 02:56:37;;;;;;;16.10;4.72;;;12.60;84.60;;;;;;5045806;28;20028;-55
2023/04/13 02:59:03;;;;;;;24.17;5.90;;;12.50;84.50;;;;;;5045933;28;20496;-55
2023/04/13 03:01:29;;;;;;;26.10;6.55;;;12.50;84.40;;;;;;5028095;28;20052;-55
2023/04/13 03:03:55;;;;;;;20.50;6.40;;;12.50;84.20;;;;;;5044340;28;20033;-55
2023/04/13 03:06:23;;;;;;;23.33;5.65;;;12.50;84.20;;;;;;5011704;28;20022;-55
2023/04/13 03:08:50;;;;;;;32.72;5.65;;;12.50;84.00;;;;;;5045723;28;20033;-55
2023/04/13 03:11:16;;;;;;;28.73;5.63;;;12.50;83.90;;;;;;5028135;28;20029;-55
2023/04/13 03:13:42;;;;;;;36.50;6.55;;;12.50;83.80;;;;;;5043712;28;20040;-55
2023/04/13 03:16:11;;;;;;;21.48;4.47;;;12.50;84.00;;;;;;5045661;28;20041;-55
2023/04/13 03:18:37;;;;;;;20.20;4.93;;;12.50;84.00;;;;;;5045764;28;20025;-55
2023/04/13 03:21:04;;;;;;;14.55;4.07;;;12.50;83.80;;;;;;5044347;28;20025;-55
2023/04/13 03:23:30;;;;;;;21.65;4.60;;;12.50;83.60;;;;;;5044112;28;20033;-55
2023/04/13 03:25:56;;;;;;;21.70;4.15;;;12.50;83.30;;;;;;5044224;28;20470;-55
2023/04/13 03:28:22;;;;;;;17.63;4.45;;;12.50;84.00;;;;;;5044001;28;20510;-55
2023/04/13 03:30:47;;;;;;;14.55;4.70;;;12.40;83.80;;;;;;5027888;28;20030;-55
2023/04/13 03:33:13;;;;;;;17.58;5.07;;;12.40;83.40;;;;;;5045841;28;20030;-56
2023/04/13 03:35:38;;;;;;;18.02;4.85;;;12.40;83.20;;;;;;5045246;28;20029;-56
2023/04/13 03:38:04;;;;;;;16.73;5.00;;;12.40;83.20;;;;;;5044073;28;20072;-56
2023/04/13 03:40:29;;;;;;;17.75;4.68;;;12.40;83.30;;;;;;5027351;28;20025;-55
2023/04/13 03:42:55;;;;;;;29.38;5.63;;;12.40;83.30;;;;;;5043456;28;20089;-55
2023/04/13 03:45:21;;;;;;;29.30;5.22;;;12.30;83.30;;;;;;5043836;28;20091;-55
2023/04/13 03:47:46;;;;;;;25.80;4.93;;;12.30;83.20;;;;;;5043755;28;20036;-55
2023/04/13 03:50:12;;;;;;;31.13;4.90;;;12.30;83.10;;;;;;5043311;28;20044;-55
2023/04/13 03:52:38;;;;;;;43.55;5.75;;;12.30;82.80;;;;;;5027373;28;20034;-55
2023/04/13 03:55:04;;;;;;;26.77;4.43;;;12.30;82.50;;;;;;5044860;28;20026;-55
2023/04/13 03:57:29;;;;;;;20.05;5.05;;;12.30;82.30;;;;;;5044936;28;20085;-55
2023/04/13 03:59:55;;;;;;;24.17;5.35;;;12.30;82.30;;;;;;5010851;28;20052;-55
2023/04/13 04:02:20;;;;;;;39.55;5.40;;;12.30;82.30;;;;;;5043262;28;20038;-55
2023/04/13 04:04:46;;;;;;;34.00;4.63;;;12.30;82.40;;;;;;5043649;28;20057;-55
2023/04/13 04:07:12;;;;;;;28.40;5.13;;;12.20;82.00;;;;;;5044945;28;20021;-55
2023/04/13 04:09:38;;;;;;;39.13;5.95;;;12.20;82.10;;;;;;5027051;28;20086;-55
2023/04/13 04:12:03;;;;;;;36.78;6.70;;;12.20;82.10;;;;;;5043321;28;20116;-55
2023/04/13 04:14:29;;;;;;;29.23;5.32;;;12.20;82.20;;;;;;5044730;28;20030;-55
2023/04/13 04:16:55;;;;;;;29.98;5.93;;;12.20;82.30;;;;;;5043402;28;20081;-55
2023/04/13 04:19:20;;;;;;;28.48;5.47;;;12.20;82.10;;;;;;5026734;28;20144;-55
2023/04/13 04:21:46;;;;;;;30.90;4.65;;;12.10;82.50;;;;;;5044629;28;20036;-56
2023/04/13 04:24:21;;;;;;;28.58;5.60;;;12.10;81.90;;;;;;5044141;28;20037;-55
2023/04/13 04:26:49;;;;;;;25.15;5.28;;;12.10;82.00;;;;;;5047659;28;20026;-55
2023/04/13 04:29:20;;;;;;;17.67;4.40;;;12.00;82.70;;;;;;5031000;28;20070;-55
2023/04/13 04:31:52;;;;;;;28.33;4.78;;;12.00;82.00;;;;;;5031318;28;20112;-55
2023/04/13 04:34:18;;;;;;;34.40;5.25;;;12.00;82.00;;;;;;5047132;28;20029;-55
2023/04/13 04:36:50;;;;;;;24.77;5.00;;;12.00;82.20;;;;;;5047159;28;20373;-55
2023/04/13 04:39:20;;;;;;;26.67;4.60;;;12.00;82.20;;;;;;5047308;28;20030;-55
2023/04/13 04:41:47;;;;;;;28.83;5.60;;;12.00;83.00;;;;;;5031204;28;20026;-55
2023/04/13 04:44:15;;;;;;;20.52;4.40;;;12.00;82.40;;;;;;5048586;28;20033;-55
2023/04/13 04:46:42;;;;;;;34.03;5.18;;;12.00;82.50;;;;;;5047277;28;20496;-55
2023/04/13 04:49:08;;;;;;;21.48;4.78;;;12.00;82.60;;;;;;5031121;28;20072;-55
2023/04/13 04:51:34;;;;;;;24.20;4.25;;;11.90;82.50;;;;;;5031050;28;20037;-55
2023/04/13 04:54:02;;;;;;;21.05;4.30;;;12.00;82.50;;;;;;4995801;28;20029;-55
2023/04/13 04:56:28;;;;;;;21.17;3.47;;;11.90;82.40;;;;;;5028211;28;20046;-55
2023/04/13 04:58:53;;;;;;;16.75;4.53;;;11.90;82.50;;;;;;5027024;28;20061;-56
2023/04/13 05:01:25;;;;;;;19.42;4.45;;;11.90;82.50;;;;;;5027744;28;20053;-55
2023/04/13 05:03:51;;;;;;;21.35;4.50;;;11.90;82.50;;;;;;5027187;28;20030;-55
2023/04/13 05:06:17;;;;;;;21.17;4.60;;;11.80;82.50;;;;;;5028227;28;20053;-55
2023/04/13 05:08:43;;;;;;;23.00;3.92;;;11.80;82.50;;;;;;5028082;28;20026;-55
2023/04/13 05:11:09;;;;;;;26.50;5.40;;;11.80;82.30;;;;;;5028135;28;20029;-55
2023/04/13 05:13:34;;;;;;;22.08;5.25;;;11.80;82.30;;;;;;5026872;28;20037;-55
2023/04/13 05:16:00;;;;;;;20.70;4.13;;;11.80;82.40;;;;;;5027886;28;20033;-55
2023/04/13 05:18:29;;;;;;;26.23;4.90;;;11.80;82.00;;;;;;5026656;28;20082;-55
2023/04/13 05:20:55;;;;;;;25.95;3.38;;;11.80;82.00;;;;;;5029352;28;20021;-55
2023/04/13 05:23:20;;;;;;;20.13;4.15;;;11.70;81.90;;;;;;5046200;28;20037;-56
2023/04/13 05:25:46;;;;;;;19.15;3.58;;;11.70;81.90;;;;;;5047352;28;20442;-55
2023/04/13 05:28:11;;;;;;;22.75;4.82;;;11.70;81.90;;;;;;5046167;28;20037;-55
2023/04/13 05:30:37;;;;;;;24.45;4.88;;;11.70;81.80;;;;;;5028120;28;20085;-55
2023/04/13 05:33:05;;;;;;;26.63;5.25;;;11.70;82.10;;;;;;5026367;28;20029;-55
2023/04/13 05:35:30;;;;;;;24.13;5.38;;;11.70;82.10;;;;;;5025738;28;20093;-56
2023/04/13 05:37:58;;;;;;;22.20;4.93;;;11.70;81.70;;;;;;5025502;28;20025;-57
2023/04/13 05:40:24;;;;;;;22.50;4.88;;;11.70;81.60;;;;;;5024421;28;20046;-56
2023/04/13 05:42:50;;;;;;;26.70;5.10;;;11.60;81.40;;;;;;5024612;28;20034;-55
2023/04/13 05:45:16;;;;;;;27.75;4.53;;;11.60;81.40;;;;;;5025301;28;20156;-55
2023/04/13 05:47:43;;;;;;;31.13;4.72;;;11.60;81.50;;;;;;5026818;28;20030;-55
2023/04/13 05:50:09;;;;;;;24.38;4.70;;;11.50;81.30;;;;;;5025915;28;20030;-56
2023/04/13 05:52:35;;;;;;;27.70;5.05;;;11.50;81.20;;;;;;5025732;28;20038;-55
2023/04/13 05:55:01;;;;;;;23.38;4.75;;;11.50;81.10;;;;;;5027205;28;20060;-55
2023/04/13 05:57:26;;;;;;;23.40;5.00;;;11.40;81.30;;;;;;5027053;28;20033;-55
2023/04/13 05:59:53;;;;;;;25.15;4.22;;;11.50;81.30;;;;;;5027044;28;20018;-56
2023/04/13 06:02:19;;;;;;;21.25;4.75;;;11.50;81.00;;;;;;5042140;28;20195;-55
2023/04/13 06:04:45;;;;;;;27.50;4.65;;;11.50;80.90;;;;;;5026764;28;20168;-55
2023/04/13 06:07:13;;;;;;;26.55;4.90;;;11.40;80.80;;;;;;5026760;28;20030;-56
2023/04/13 06:09:39;;;;;;;28.48;4.80;;;11.40;80.70;;;;;;5025521;28;20423;-56
2023/04/13 06:12:04;;;;;;;28.45;4.47;;;11.40;80.80;;;;;;5026858;28;20095;-55
2023/04/13 06:14:30;;;;;;;31.05;4.20;;;11.40;80.70;;;;;;5032631;28;20068;-55
2023/04/13 06:16:56;;;;;;;30.58;4.65;;;11.40;80.50;;;;;;5046436;28;20085;-56
2023/04/13 06:19:21;;;;;;;23.73;3.67;;;11.40;80.50;;;;;;5046505;28;20041;-56
2023/04/13 06:21:47;;;;;;;23.73;4.18;;;11.40;80.40;;;;;;5046542;28;20037;-56
2023/04/13 06:24:12;;;;;;;22.00;3.95;;;11.40;80.50;;;;;;5031861;28;20045;-55
2023/04/13 06:26:38;;;;;;;24.63;4.32;;;11.40;80.50;;;;;;5024611;28;20056;-55
2023/04/13 06:29:04;;;;;;;22.83;4.70;;;11.40;80.60;;;;;;5025116;28;20045;-55
2023/04/13 06:31:29;;;;;;;19.50;3.90;;;11.40;80.60;;;;;;5026164;28;20063;-56
2023/04/13 06:33:55;;;;;;;18.80;4.20;;;11.40;80.50;;;;;;5042985;28;20030;-55
2023/04/13 06:36:21;;;;;;;17.35;3.80;;;11.40;80.40;;;;;;5046082;28;20025;-55
2023/04/13 06:38:46;;;;;;;14.50;3.70;;;11.40;80.30;;;;;;5045893;28;20037;-56
2023/04/13 06:41:12;;;;;;;19.85;3.80;;;11.40;80.30;;;;;;5040644;28;20026;-55
2023/04/13 06:43:37;;;;;;;20.30;3.42;;;11.40;80.20;;;;;;5026093;28;20037;-55
2023/04/13 06:46:03;;;;;;;17.55;3.58;;;11.40;80.20;;;;;;5024612;28;20038;-55
2023/04/13 06:48:29;;;;;;;21.92;3.85;;;11.40;80.10;;;;;;5024578;28;20029;-55
2023/04/13 06:50:55;;;;;;;18.63;3.10;;;11.30;79.90;;;;;;5032947;28;20482;-55
2023/04/13 06:53:21;;;;;;;19.98;2.95;;;11.40;80.70;;;;;;5043442;28;20034;-55
2023/04/13 06:55:46;;;;;;;12.85;2.80;;;11.30;79.90;;;;;;5042779;28;20100;-56
2023/04/13 06:58:12;;;;;;;16.45;3.55;;;11.40;79.80;;;;;;5031158;28;20140;-55
2023/04/13 07:00:38;;;;;;;25.77;3.80;;;11.40;79.80;;;;;;5069307;28;20028;-55
2023/04/13 07:03:03;;;;;;;22.38;3.58;;;11.40;79.70;;;;;;5075620;28;20033;-55
2023/04/13 07:05:29;;;;;;;27.92;3.70;;;11.30;79.70;;;;;;5041363;28;20049;-56
2023/04/13 07:07:55;;;;;;;23.25;3.45;;;11.40;79.80;;;;;;5043543;28;20041;-55
2023/04/13 07:10:21;;;;;;;17.02;3.80;;;11.40;79.60;;;;;;5043310;28;20056;-56
2023/04/13 07:12:47;;;;;;;32.05;4.40;;;11.40;79.60;;;;;;5043984;28;20029;-56
2023/04/13 07:15:12;;;;;;;23.25;3.58;;;11.40;79.60;;;;;;5040007;28;20496;-56
2023/04/13 07:17:38;;;;;;;28.45;4.18;;;11.40;79.70;;;;;;5024220;28;20030;-56
2023/04/13 07:20:06;;;;;;;30.45;4.55;;;11.40;79.50;;;;;;5030569;28;20072;-55
2023/04/13 07:22:32;;;;;;;31.30;5.43;;;11.40;79.30;;;;;;5027016;28;20462;-55
2023/04/13 07:24:58;;;;;;;51.15;6.28;;;11.40;79.40;;;;;;5043571;28;20079;-55
2023/04/13 07:27:23;;;;;;;31.52;5.90;;;11.40;79.50;;;;;;5042624;28;20037;-56
2023/04/13 07:29:52;;;;;;;48.58;7.13;;;11.40;79.50;;;;;;5027544;28;20025;-57
2023/04/13 07:32:19;;;;;;;40.47;7.50;;;11.40;79.40;;;;;;5039243;28;20137;-55
2023/04/13 07:34:44;;;;;;;30.42;5.70;;;11.40;79.30;;;;;;5046001;28;20025;-55
2023/04/13 07:37:10;;;;;;;46.33;5.30;;;11.40;79.00;;;;;;5041784;28;20026;-56
2023/04/13 07:39:35;;;;;;;69.85;8.27;;;11.40;78.90;;;;;;5012203;28;20049;-56
2023/04/13 07:42:01;;;;;;;66.07;8.32;;;11.50;79.10;;;;;;5023309;28;20037;-56
2023/04/13 07:44:27;;;;;;;69.05;9.23;;;11.50;79.00;;;;;;5027733;28;20025;-55
2023/04/13 07:46:55;;;;;;;79.63;10.95;;;11.50;78.90;;;;;;5041915;28;20037;-56
2023/04/13 07:49:22;;;;;;;88.47;11.45;;;11.50;78.90;;;;;;5007069;28;20029;-55
2023/04/13 07:51:48;;;;;;;84.13;10.57;;;11.60;78.80;;;;;;5022780;28;20438;-55
2023/04/13 07:54:15;;;;;;;92.10;11.93;;;11.60;78.70;;;;;;5039940;28;20018;-58
2023/04/13 07:56:40;;;;;;;67.30;10.48;;;11.50;78.60;;;;;;5031544;28;20095;-58
2023/04/13 07:59:06;;;;;;;60.97;8.48;;;11.60;78.60;;;;;;5039476;28;20057;-58
2023/04/13 08:01:31;;;;;;;66.13;9.30;;;11.60;79.20;;;;;;5056657;28;20030;-58
2023/04/13 08:03:57;;;;;;;55.85;9.27;;;11.60;78.40;;;;;;5056606;28;20037;-58
2023/04/13 08:06:22;;;;;;;60.55;9.50;;;11.70;78.40;;;;;;5024485;28;20022;-58
2023/04/13 08:08:48;;;;;;;65.95;9.32;;;11.70;78.30;;;;;;5023493;28;20026;-58
2023/04/13 08:11:14;;;;;;;54.72;8.07;;;11.70;78.20;;;;;;5006883;28;20026;-58
2023/04/13 08:13:40;;;;;;;74.40;10.70;;;11.70;78.10;;;;;;5024156;28;20080;-58
2023/04/13 08:16:07;;;;;;;59.70;8.98;;;11.80;78.20;;;;;;5024858;28;20030;-58
2023/04/13 08:18:32;;;;;;;77.10;8.90;;;11.80;78.10;;;;;;5024648;28;20030;-58
2023/04/13 08:20:58;;;;;;;66.00;9.20;;;11.80;78.00;;;;;;5023923;28;20144;-58
2023/04/13 08:23:24;;;;;;;74.72;10.70;;;11.80;77.70;;;;;;5042998;28;20037;-58
2023/04/13 08:25:50;;;;;;;62.50;8.07;;;11.90;77.70;;;;;;5044038;28;20041;-58
2023/04/13 08:28:15;;;;;;;57.75;8.25;;;11.80;77.50;;;;;;5043081;28;20373;-58
2023/04/13 08:30:44;;;;;;;81.35;9.63;;;11.90;77.60;;;;;;5035868;28;20030;-58
2023/04/13 08:33:10;;;;;;;61.53;8.50;;;11.90;77.60;;;;;;5023112;28;20110;-58
2023/04/13 08:35:38;;;;;;;66.82;9.55;;;11.90;77.60;;;;;;5022944;28;20026;-58
2023/04/13 08:38:07;;;;;;;41.03;7.03;;;11.90;77.50;;;;;;5024399;28;20026;-58
2023/04/13 08:40:37;;;;;;;49.08;6.60;;;11.90;77.30;;;;;;5023022;28;20025;-58
2023/04/13 08:43:03;;;;;;;57.50;7.47;;;11.90;77.90;;;;;;5006745;28;20030;-55
2023/04/13 08:45:29;;;;;;;46.13;8.90;;;11.90;77.20;;;;;;5022800;28;20033;-56
2023/04/13 08:47:56;;;;;;;59.35;7.97;;;11.90;77.20;;;;;;5006657;28;20095;-56
2023/04/13 08:50:21;;;;;;;66.50;9.77;;;11.90;77.20;;;;;;5006321;28;20084;-55
2023/04/13 08:52:47;;;;;;;51.28;7.68;;;11.90;77.10;;;;;;4990247;28;20451;-56
2023/04/13 08:55:14;;;;;;;78.40;8.98;;;12.00;77.10;;;;;;5022871;28;20026;-55
2023/04/13 08:57:40;;;;;;;48.05;8.30;;;12.00;77.20;;;;;;5006550;28;20026;-55
2023/04/13 09:00:14;;;;;;;57.40;7.47;;;12.00;77.10;;;;;;5022834;28;20036;-55
2023/04/13 09:02:41;;;;;;;67.63;8.32;;;12.00;77.10;;;;;;5007891;28;20118;-55
2023/04/13 09:05:14;;;;;;;66.60;9.48;;;12.00;77.10;;;;;;5022657;28;20044;-56
2023/04/13 09:07:40;;;;;;;54.38;9.63;;;12.00;77.10;;;;;;5007438;28;20108;-55
2023/04/13 09:10:08;;;;;;;84.72;11.32;;;12.00;77.10;;;;;;5022584;28;20026;-55
2023/04/13 09:12:33;;;;;;;62.42;10.18;;;12.00;77.10;;;;;;5009400;28;20072;-55
2023/04/13 09:15:00;;;;;;;39.95;7.10;;;12.00;77.10;;;;;;5009715;28;20026;-55
2023/04/13 09:17:27;;;;;;;68.93;9.70;;;12.10;77.00;;;;;;5026120;28;20037;-56
2023/04/13 09:19:54;;;;;;;58.10;9.43;;;12.10;77.00;;;;;;5026095;28;20084;-56
2023/04/13 09:22:20;;;;;;;68.40;10.80;;;12.10;77.00;;;;;;5026964;28;20058;-56
2023/04/13 09:24:46;;;;;;;83.82;11.07;;;12.10;76.90;;;;;;5026190;28;20079;-55
2023/04/13 09:27:22;;;;;;;86.88;10.57;;;12.20;77.10;;;;;;5025932;28;20458;-55
2023/04/13 09:29:48;;;;;;;;;;;12.20;77.00;;;;;;5025846;28;20056;-56
2023/04/13 09:32:21;;;;;;;87.15;10.68;;;12.20;77.00;;;;;;5060156;28;19920;-58
2023/04/13 09:34:57;;;;;;;94.95;11.65;;;12.20;76.90;;;;;;5030002;28;20017;-58
2023/04/13 09:37:22;;;;;;;70.60;9.65;;;12.30;76.90;;;;;;5039064;28;20033;-57
2023/04/13 09:39:48;;;;;;;70.72;10.90;;;12.30;76.80;;;;;;5027083;28;20026;-58
2023/04/13 09:42:16;;;;;;;119.88;13.82;;;12.30;76.90;;;;;;5043825;28;20025;-58
2023/04/13 09:44:42;;;;;;;97.95;13.05;;;12.30;78.00;;;;;;5045304;28;20084;-57
2023/04/13 09:47:08;;;;;;;92.85;11.68;;;12.40;77.50;;;;;;5047142;28;20025;-55
2023/04/13 09:49:40;;;;;;;80.40;11.85;;;12.40;77.30;;;;;;5045353;28;20060;-56
2023/04/13 09:52:16;;;;;;;91.70;12.18;;;12.40;77.10;;;;;;5041193;28;20053;-55
2023/04/13 09:54:42;;;;;;;98.18;11.52;;;12.40;77.00;;;;;;5037712;28;20030;-55
2023/04/13 09:57:10;;;;;;;111.22;14.27;;;12.40;76.90;;;;;;5027981;28;20022;-55
2023/04/13 09:59:36;;;;;;;100.20;11.48;;;12.40;76.90;;;;;;5045970;28;20120;-55
2023/04/13 10:02:02;;;;;;;87.70;11.85;;;12.50;76.80;;;;;;5044888;28;20045;-55
2023/04/13 10:04:27;;;;;;;93.43;12.20;;;12.50;76.90;;;;;;5045292;28;20060;-55
2023/04/13 10:06:53;;;;;;;74.15;10.48;;;12.60;77.00;;;;;;5045049;28;20025;-55
2023/04/13 10:09:20;;;;;;;100.43;11.85;;;12.60;77.50;;;;;;5044879;28;20073;-56
2023/04/13 10:11:48;;;;;;;100.30;12.30;;;12.60;76.90;;;;;;5045051;28;20033;-56
2023/04/13 10:14:18;;;;;;;118.63;14.02;;;12.60;77.00;;;;;;5044983;28;20033;-55
2023/04/13 10:17:03;;;;;;;75.20;12.57;;;12.70;77.00;;;;;;5045250;28;20059;-56
2023/04/13 10:19:29;;;;;;;40.78;6.63;;;12.70;76.90;;;;;;5046571;28;20104;-55
2023/04/13 10:21:55;;;;;;;62.83;8.55;;;12.70;76.50;;;;;;5044968;28;20385;-55
2023/04/13 10:24:22;;;;;;;67.28;8.73;;;12.80;76.60;;;;;;5046812;28;20066;-55
2023/04/13 10:26:52;;;;;;;99.82;11.45;;;12.80;76.70;;;;;;5044789;28;20093;-56
2023/04/13 10:29:26;;;;;;;100.07;12.35;;;12.80;76.50;;;;;;5044849;28;20045;-56
2023/04/13 10:31:54;;;;;;;79.65;10.50;;;12.90;76.50;;;;;;5046027;28;20080;-55
2023/04/13 10:34:24;;;;;;;100.63;14.32;;;12.90;76.30;;;;;;5044679;28;20081;-54
2023/04/13 10:36:53;;;;;;;129.55;17.27;;;13.00;75.90;;;;;;5044343;28;20028;-55
2023/04/13 10:39:26;;;;;;;98.75;12.85;;;13.00;75.30;;;;;;5045455;28;20116;-55
2023/04/13 10:42:01;;;;;;;80.22;11.43;;;13.00;75.30;;;;;;5044057;28;20025;-55
2023/04/13 10:44:28;;;;;;;;;;;13.10;75.30;;;;;;5027857;28;20033;-55
2023/04/13 10:46:53;;;;;;;;;;;13.20;75.20;;;;;;5044370;28;19959;-56
2023/04/13 10:49:29;;;;;;;54.60;9.32;;;13.20;74.90;;;;;;5077453;28;19943;-55
2023/04/13 10:51:55;;;;;;;65.68;8.82;;;13.30;74.50;;;;;;5043796;28;20045;-55
2023/04/13 10:54:20;;;;;;;94.03;11.23;;;13.30;74.10;;;;;;5043715;28;20059;-56
2023/04/13 10:56:58;;;;;;;57.88;9.52;;;13.40;74.00;;;;;;5043838;28;20025;-55
2023/04/13 10:59:42;;;;;;;83.25;10.95;;;13.40;73.50;;;;;;5043868;28;20029;-55
2023/04/13 11:02:15;;;;;;;58.38;7.05;;;13.50;73.00;;;;;;5044017;28;20071;-55
2023/04/13 11:04:41;;;;;;;56.33;7.60;;;13.50;72.50;;;;;;5043927;28;20040;-55
2023/04/13 11:07:11;;;;;;;162.80;19.25;;;13.60;72.20;;;;;;5043636;28;20045;-56
2023/04/13 11:09:37;;;;;;;114.55;13.85;;;13.60;72.80;;;;;;5043437;28;20052;-55
2023/04/13 11:12:06;;;;;;;78.32;11.57;;;13.70;72.60;;;;;;5043753;28;20038;-55
2023/04/13 11:14:34;;;;;;;81.35;11.75;;;13.60;72.10;;;;;;5041973;28;20032;-55
2023/04/13 11:17:00;;;;;;;79.78;10.80;;;13.70;71.90;;;;;;5027530;28;20037;-55
2023/04/13 11:19:26;;;;;;;40.25;7.82;;;13.70;71.50;;;;;;5043607;28;20616;-55
2023/04/13 11:21:53;;;;;;;69.07;8.85;;;13.80;71.20;;;;;;5026503;28;20029;-56
2023/04/13 11:24:26;;;;;;;88.72;10.07;;;13.80;70.60;;;;;;5042658;28;20047;-55
2023/04/13 11:26:53;;;;;;;60.20;9.07;;;13.80;70.70;;;;;;5027149;28;20087;-56
2023/04/13 11:29:19;;;;;;;140.90;15.50;;;13.90;70.60;;;;;;5059554;28;20083;-56
2023/04/13 11:31:45;;;;;;;67.13;9.35;;;13.90;70.50;;;;;;5063070;28;20033;-55
2023/04/13 11:34:11;;;;;;;62.60;8.27;;;14.00;70.10;;;;;;5047770;28;20072;-55
2023/04/13 11:36:38;;;;;;;44.65;7.68;;;14.00;70.10;;;;;;5043262;28;20026;-55
2023/04/13 11:39:06;;;;;;;114.57;13.77;;;14.00;69.90;;;;;;5043023;28;20068;-55
2023/04/13 11:41:38;;;;;;;54.72;9.93;;;14.10;70.00;;;;;;5043237;28;20022;-56
2023/04/13 11:44:03;;;;;;;67.20;9.65;;;14.10;69.80;;;;;;5042738;28;20030;-55
2023/04/13 11:46:29;;;;;;;81.97;10.52;;;14.10;69.70;;;;;;5043251;28;20026;-55
2023/04/13 11:48:54;;;;;;;170.05;19.67;;;14.20;70.00;;;;;;5059693;28;20037;-55
2023/04/13 11:51:21;;;;;;;88.35;12.73;;;14.20;69.90;;;;;;5043027;28;20117;-56
2023/04/13 11:53:46;;;;;;;71.20;10.65;;;14.20;69.90;;;;;;5042871;28;20033;-55
2023/04/13 11:56:13;;;;;;;75.18;9.57;;;14.30;69.80;;;;;;5058565;28;20049;-55
2023/04/13 11:58:39;;;;;;;49.47;7.43;;;14.30;69.90;;;;;;5025931;28;20033;-55
2023/04/13 12:01:08;;;;;;;53.35;6.60;;;14.30;69.70;;;;;;5044376;28;20033;-55
2023/04/13 12:03:35;;;;;;;56.03;7.90;;;14.40;69.60;;;;;;5042658;28;20017;-56
2023/04/13 12:06:01;;;;;;;23.40;4.90;;;14.40;69.50;;;;;;5042945;28;20083;-55
2023/04/13 12:08:28;;;;;;;20.60;3.05;;;14.40;68.80;;;;;;5026637;28;20033;-55
2023/04/13 12:11:02;;;;;;;30.85;4.15;;;14.40;68.60;;;;;;5026437;28;20038;-55
2023/04/13 12:13:40;;;;;;;26.20;4.00;;;14.30;68.90;;;;;;5055561;28;20520;-55
2023/04/13 12:16:06;;;;;;;18.90;3.72;;;14.30;69.40;;;;;;5047527;28;20041;-55
2023/04/13 12:18:38;;;;;;;26.08;4.47;;;14.30;70.00;;;;;;5043059;28;20091;-55
2023/04/13 12:21:04;;;;;;;21.33;4.32;;;14.20;70.30;;;;;;5043099;28;20045;-55
2023/04/13 12:23:30;;;;;;;21.23;3.92;;;14.20;70.70;;;;;;5037595;28;20030;-55
2023/04/13 12:25:59;;;;;;;22.08;4.78;;;14.10;71.10;;;;;;5042060;28;20029;-55
2023/04/13 12:28:31;;;;;;;42.92;5.95;;;14.10;71.60;;;;;;5025874;28;20029;-55
2023/04/13 12:31:08;;;;;;;58.38;7.50;;;14.10;72.10;;;;;;5042036;28;20033;-55
2023/04/13 12:33:34;;;;;;;35.15;6.38;;;14.00;72.40;;;;;;5042575;28;20033;-55
2023/04/13 12:36:00;;;;;;;38.17;5.60;;;14.10;72.60;;;;;;5042333;28;20030;-55